Time;durP1;ratioP1;P1;durP2;ratioP2;P2;SDS_P1;SDS_P2;PMS_P1;PMS_P2;Temp;Humidity;BMP_temperature;BMP_pressure;BME280_temperature;BME280_humidity;BME280_pressure;Samples;Min_cycle;Max_cycle;Signal;HPM_P1;HPM_P2
2021/03/19 00:00:58;;;;;;;8.60;7.10;;;5.10;99.90;;;;;;5054266;28;20171;-64
2021/03/19 00:03:24;;;;;;;7.90;6.97;;;5.20;99.90;;;;;;5057932;28;20259;-64
2021/03/19 00:05:50;;;;;;;8.50;7.70;;;5.40;99.90;;;;;;5074127;28;20453;-64
2021/03/19 00:08:15;;;;;;;8.17;6.60;;;5.40;99.90;;;;;;5074067;28;20174;-64
2021/03/19 00:10:41;;;;;;;7.00;6.30;;;5.40;99.90;;;;;;5074054;28;20177;-64
2021/03/19 00:13:09;;;;;;;8.87;7.87;;;5.50;99.90;;;;;;5073966;28;20180;-64
2021/03/19 00:15:35;;;;;;;7.57;6.87;;;5.60;99.90;;;;;;5073723;28;20655;-64
2021/03/19 00:18:03;;;;;;;8.90;8.10;;;5.40;99.90;;;;;;5064066;28;20420;-64
2021/03/19 00:20:31;;;;;;;7.60;6.90;;;5.50;99.90;;;;;;5073920;28;20810;-64
2021/03/19 00:22:57;;;;;;;10.90;8.00;;;5.50;99.90;;;;;;5069077;28;20498;-64
2021/03/19 00:25:23;;;;;;;8.73;7.93;;;5.50;99.90;;;;;;5069219;28;20423;-64
2021/03/19 00:27:48;;;;;;;9.23;7.07;;;5.50;99.90;;;;;;5073652;28;20435;-64
2021/03/19 00:30:15;;;;;;;7.57;6.73;;;5.40;99.90;;;;;;5073568;28;20405;-64
2021/03/19 00:32:42;;;;;;;8.80;7.90;;;5.30;99.90;;;;;;5073457;28;20651;-64
2021/03/19 00:35:09;;;;;;;10.70;8.00;;;5.40;99.90;;;;;;5073558;28;20927;-65
2021/03/19 00:37:35;;;;;;;9.17;8.23;;;5.50;99.90;;;;;;5073508;28;20466;-64
2021/03/19 00:40:01;;;;;;;8.57;7.60;;;5.30;99.90;;;;;;5073168;28;20957;-64
2021/03/19 00:42:26;;;;;;;9.67;7.43;;;5.40;99.90;;;;;;5073708;28;20452;-64
2021/03/19 00:44:53;;;;;;;8.60;7.80;;;5.40;99.90;;;;;;5073390;28;20649;-64
2021/03/19 00:47:18;;;;;;;10.57;8.50;;;5.50;99.90;;;;;;5072453;28;20262;-64
2021/03/19 00:49:44;;;;;;;8.03;7.23;;;5.50;99.90;;;;;;5073337;28;20919;-64
2021/03/19 00:52:10;;;;;;;8.77;7.60;;;5.50;99.90;;;;;;5073724;28;20257;-64
2021/03/19 00:54:35;;;;;;;8.03;6.90;;;5.50;99.90;;;;;;5073271;28;20312;-64
2021/03/19 00:57:01;;;;;;;8.70;7.80;;;5.30;99.90;;;;;;5066199;28;20670;-64
2021/03/19 00:59:26;;;;;;;10.30;8.60;;;5.30;99.90;;;;;;5073055;28;20182;-64
2021/03/19 01:01:52;;;;;;;11.00;8.97;;;5.20;99.90;;;;;;5072536;28;20280;-65
2021/03/19 01:04:18;;;;;;;10.47;9.53;;;5.10;99.90;;;;;;5058193;28;20542;-64
2021/03/19 01:06:43;;;;;;;9.30;8.40;;;5.00;99.90;;;;;;5053505;28;20795;-64
2021/03/19 01:09:09;;;;;;;9.10;8.27;;;4.80;99.90;;;;;;5053098;28;20240;-64
2021/03/19 01:11:35;;;;;;;9.57;8.57;;;4.80;99.90;;;;;;5052628;28;20216;-64
2021/03/19 01:14:01;;;;;;;10.77;7.97;;;4.80;99.90;;;;;;5053109;28;20416;-64
2021/03/19 01:16:27;;;;;;;12.03;9.83;;;4.70;99.90;;;;;;5067539;28;20194;-64
2021/03/19 01:18:52;;;;;;;12.67;10.23;;;4.70;99.90;;;;;;5072717;28;20822;-64
2021/03/19 01:21:18;;;;;;;12.07;9.90;;;4.70;99.90;;;;;;5072327;28;20177;-64
2021/03/19 01:23:45;;;;;;;10.83;9.73;;;4.50;99.90;;;;;;5073502;28;20166;-64
2021/03/19 01:26:12;;;;;;;9.70;8.70;;;4.50;99.90;;;;;;5072965;28;20203;-64
2021/03/19 01:28:38;;;;;;;9.93;9.03;;;4.50;99.90;;;;;;5073025;28;20885;-64
2021/03/19 01:31:06;;;;;;;10.57;9.27;;;4.50;99.90;;;;;;5072978;28;20400;-64
2021/03/19 01:33:32;;;;;;;11.57;10.33;;;4.60;99.90;;;;;;5072677;28;20189;-64
2021/03/19 01:35:59;;;;;;;11.57;10.10;;;4.60;99.90;;;;;;5073040;28;20428;-64
2021/03/19 01:38:24;;;;;;;11.57;10.37;;;4.70;99.90;;;;;;5065164;28;20789;-64
2021/03/19 01:40:50;;;;;;;10.40;9.30;;;4.50;99.90;;;;;;5072765;28;20453;-64
2021/03/19 01:43:48;;;;;;;11.87;10.37;;;4.50;99.90;;;;;;5072933;28;20190;-64
2021/03/19 01:46:50;;;;;;;12.67;11.10;;;4.50;99.90;;;;;;5056285;28;20214;-64
2021/03/19 01:49:53;;;;;;;14.00;10.73;;;4.30;99.90;;;;;;5052870;28;20411;-64
2021/03/19 01:52:57;;;;;;;11.00;9.90;;;4.10;99.90;;;;;;5052711;28;20443;-64
2021/03/19 01:56:00;;;;;;;14.70;9.77;;;4.10;99.90;;;;;;5071572;28;20792;-64
2021/03/19 01:59:02;;;;;;;11.03;9.40;;;4.20;99.90;;;;;;5054518;28;20912;-64
2021/03/19 02:02:11;;;;;;;10.30;9.30;;;4.30;99.90;;;;;;5072820;28;20451;-64
2021/03/19 02:05:13;;;;;;;9.80;8.80;;;4.30;99.90;;;;;;5044288;28;20770;-64
2021/03/19 02:08:16;;;;;;;11.37;9.70;;;4.30;99.90;;;;;;5072426;28;20930;-64
2021/03/19 02:11:19;;;;;;;9.43;8.37;;;4.10;99.90;;;;;;5072430;28;20926;-64
2021/03/19 02:14:22;;;;;;;13.93;10.30;;;4.10;99.90;;;;;;5072587;28;20410;-64
2021/03/19 02:17:25;;;;;;;10.33;9.30;;;4.20;99.90;;;;;;5046769;28;20862;-64
2021/03/19 02:20:28;;;;;;;11.23;9.63;;;4.10;99.90;;;;;;5072274;28;20420;-64
2021/03/19 02:23:31;;;;;;;14.30;12.07;;;4.00;99.90;;;;;;5074187;28;20499;-64
2021/03/19 02:26:34;;;;;;;11.80;10.20;;;4.00;99.90;;;;;;5075809;28;20425;-64
2021/03/19 02:29:37;;;;;;;11.87;10.30;;;4.10;99.90;;;;;;5075864;28;20796;-64
2021/03/19 02:32:08;;;;;;;11.10;10.00;;;4.00;99.90;;;;;;5075124;28;20415;-64
2021/03/19 02:34:51;;;;;;;12.77;11.57;;;4.00;99.90;;;;;;5075875;28;20404;-64
2021/03/19 02:37:22;;;;;;;11.57;10.27;;;4.10;99.90;;;;;;5055784;28;20803;-64
2021/03/19 02:39:49;;;;;;;13.03;11.60;;;4.20;99.90;;;;;;5066455;28;20425;-64
2021/03/19 02:42:17;;;;;;;11.97;10.73;;;4.20;99.90;;;;;;5075682;28;20501;-64
2021/03/19 02:44:43;;;;;;;12.90;11.47;;;4.30;99.90;;;;;;5075941;28;20400;-64
2021/03/19 02:47:09;;;;;;;11.97;10.67;;;4.30;99.90;;;;;;5099558;22;20609;-63
2021/03/19 02:49:35;;;;;;;11.87;10.67;;;4.40;99.90;;;;;;5075908;28;20513;-64
2021/03/19 02:52:01;;;;;;;12.67;11.40;;;4.40;99.90;;;;;;5075890;28;20453;-64
2021/03/19 02:54:26;;;;;;;15.50;12.03;;;4.50;99.90;;;;;;5072138;28;20552;-63
2021/03/19 02:56:52;;;;;;;11.57;10.47;;;4.60;99.90;;;;;;5067680;28;20281;-59
2021/03/19 02:59:18;;;;;;;11.40;10.30;;;4.60;99.90;;;;;;5089406;28;20185;-64
2021/03/19 03:01:45;;;;;;;12.43;11.20;;;4.70;99.90;;;;;;5077378;28;20573;-63
2021/03/19 03:04:11;;;;;;;10.70;9.70;;;4.70;99.90;;;;;;5075694;28;20453;-64
2021/03/19 03:06:42;;;;;;;11.90;10.77;;;4.60;99.90;;;;;;5075310;28;20900;-64
2021/03/19 03:09:09;;;;;;;13.70;11.10;;;4.60;99.90;;;;;;5075565;28;20521;-64
2021/03/19 03:11:36;;;;;;;12.37;10.97;;;4.60;99.90;;;;;;5074918;28;20411;-64
2021/03/19 03:14:05;;;;;;;12.67;11.37;;;4.70;99.90;;;;;;5075207;28;20400;-64
2021/03/19 03:16:31;;;;;;;13.80;12.27;;;4.70;99.90;;;;;;5074300;28;20424;-64
2021/03/19 03:18:56;;;;;;;12.80;11.50;;;4.70;99.90;;;;;;5075499;28;20411;-64
2021/03/19 03:21:22;;;;;;;14.33;12.80;;;4.70;99.90;;;;;;5074617;28;20818;-62
2021/03/19 03:23:47;;;;;;;14.73;13.17;;;4.60;99.90;;;;;;5075136;28;20166;-65
2021/03/19 03:26:13;;;;;;;13.83;11.63;;;4.60;99.90;;;;;;5075222;28;20492;-62
2021/03/19 03:28:38;;;;;;;12.60;11.30;;;4.60;99.90;;;;;;5074996;28;20158;-64
2021/03/19 03:31:07;;;;;;;13.20;11.90;;;4.70;99.90;;;;;;5074847;28;20245;-64
2021/03/19 03:33:32;;;;;;;13.67;12.27;;;4.60;99.90;;;;;;5074109;28;20172;-64
2021/03/19 03:35:58;;;;;;;14.67;12.50;;;4.60;99.90;;;;;;5067920;28;20420;-64
2021/03/19 03:38:26;;;;;;;14.47;11.30;;;4.70;99.90;;;;;;5074436;28;20217;-64
2021/03/19 03:41:05;;;;;;;12.40;11.10;;;4.80;99.90;;;;;;5074366;28;20166;-64
2021/03/19 03:43:31;;;;;;;13.10;11.80;;;4.90;99.90;;;;;;5075103;28;20409;-64
2021/03/19 03:45:57;;;;;;;13.33;11.70;;;4.90;99.90;;;;;;5074659;28;20442;-64
2021/03/19 03:48:27;;;;;;;13.13;11.87;;;4.90;99.90;;;;;;5073735;28;20455;-64
2021/03/19 03:50:54;;;;;;;12.27;11.07;;;4.90;99.90;;;;;;5074438;28;20408;-64
2021/03/19 03:53:21;;;;;;;13.63;12.03;;;4.80;99.90;;;;;;5074340;28;20408;-63
2021/03/19 03:55:48;;;;;;;12.33;11.13;;;4.60;99.90;;;;;;5070914;28;20446;-63
2021/03/19 03:58:14;;;;;;;12.37;11.20;;;4.50;99.90;;;;;;5074427;28;20796;-64
2021/03/19 04:00:41;;;;;;;13.43;12.03;;;4.50;99.90;;;;;;5073237;28;20416;-63
2021/03/19 04:03:07;;;;;;;14.53;12.90;;;4.40;99.90;;;;;;5073943;28;20205;-63
2021/03/19 04:05:42;;;;;;;13.90;11.20;;;4.50;99.90;;;;;;5073766;28;20412;-64
2021/03/19 04:08:10;;;;;;;13.87;12.37;;;4.40;99.90;;;;;;5066132;28;20940;-63
2021/03/19 04:10:36;;;;;;;14.97;13.30;;;4.40;99.90;;;;;;5073670;28;20782;-63
2021/03/19 04:13:03;;;;;;;15.57;13.23;;;4.40;99.90;;;;;;5073889;28;20450;-63
2021/03/19 04:15:30;;;;;;;16.13;14.03;;;4.40;99.90;;;;;;5073980;28;20407;-63
2021/03/19 04:18:03;;;;;;;15.10;11.70;;;4.30;99.90;;;;;;5073059;28;20530;-63
2021/03/19 04:20:29;;;;;;;16.40;14.70;;;4.40;99.90;;;;;;5074271;28;20431;-63
2021/03/19 04:22:56;;;;;;;19.03;14.90;;;4.30;99.90;;;;;;5073426;28;20513;-63
2021/03/19 04:25:22;;;;;;;13.37;11.80;;;4.30;99.90;;;;;;5073634;28;20415;-63
2021/03/19 04:27:52;;;;;;;14.60;12.43;;;4.30;99.90;;;;;;5073865;28;20485;-63
2021/03/19 04:30:28;;;;;;;15.80;14.30;;;4.20;99.90;;;;;;5073674;28;20412;-63
2021/03/19 04:32:54;;;;;;;14.07;12.67;;;4.20;99.90;;;;;;5073420;28;20421;-63
2021/03/19 04:35:22;;;;;;;14.90;13.50;;;4.30;99.90;;;;;;5073610;28;20436;-63
2021/03/19 04:37:50;;;;;;;15.80;14.07;;;4.30;99.90;;;;;;5073532;28;20443;-63
2021/03/19 04:40:16;;;;;;;17.00;15.20;;;4.30;99.90;;;;;;5073418;28;20924;-64
2021/03/19 04:42:42;;;;;;;13.30;11.90;;;4.20;99.90;;;;;;5073455;28;20792;-63
2021/03/19 04:45:09;;;;;;;17.87;16.00;;;4.20;99.90;;;;;;5066339;28;20537;-63
2021/03/19 04:47:35;;;;;;;16.90;15.23;;;4.20;99.90;;;;;;5071941;28;20693;-65
2021/03/19 04:50:00;;;;;;;18.60;15.13;;;4.40;99.90;;;;;;5055646;28;20409;-63
2021/03/19 04:52:26;;;;;;;14.27;12.87;;;4.40;99.90;;;;;;5073412;28;20181;-63
2021/03/19 04:54:51;;;;;;;15.07;13.50;;;4.40;99.90;;;;;;5072754;28;20188;-64
2021/03/19 04:57:17;;;;;;;17.93;14.80;;;4.40;99.90;;;;;;5073259;28;20208;-64
2021/03/19 04:59:42;;;;;;;14.47;12.97;;;4.40;99.90;;;;;;5073610;28;20177;-63
2021/03/19 05:02:08;;;;;;;19.87;14.73;;;4.30;99.90;;;;;;5073026;28;20273;-63
2021/03/19 05:04:34;;;;;;;17.03;14.97;;;4.30;99.90;;;;;;5073238;28;20535;-63
2021/03/19 05:07:04;;;;;;;14.77;13.30;;;4.20;99.90;;;;;;5073263;28;20186;-63
2021/03/19 05:09:30;;;;;;;16.90;15.27;;;4.20;99.90;;;;;;5073359;28;20177;-63
2021/03/19 05:11:57;;;;;;;16.13;13.20;;;4.10;99.90;;;;;;5073221;28;20406;-63
2021/03/19 05:14:23;;;;;;;17.10;15.27;;;4.20;99.90;;;;;;5073720;28;20405;-64
2021/03/19 05:16:49;;;;;;;14.53;13.20;;;4.20;99.90;;;;;;5066052;28;20435;-62
2021/03/19 05:19:16;;;;;;;16.43;14.83;;;4.20;99.90;;;;;;5072837;28;20771;-63
2021/03/19 05:21:42;;;;;;;15.70;14.17;;;4.20;99.90;;;;;;5072410;28;20818;-63
2021/03/19 05:24:08;;;;;;;17.30;14.20;;;4.30;99.90;;;;;;5073015;28;20763;-63
2021/03/19 05:26:34;;;;;;;16.67;14.97;;;4.20;99.90;;;;;;5071683;28;20465;-63
2021/03/19 05:29:00;;;;;;;14.97;13.57;;;4.20;99.90;;;;;;5072954;28;20414;-63
2021/03/19 05:31:25;;;;;;;14.53;13.10;;;4.30;99.90;;;;;;5073496;28;20184;-63
2021/03/19 05:33:54;;;;;;;15.03;13.57;;;4.30;99.90;;;;;;5072748;28;20415;-63
2021/03/19 05:36:23;;;;;;;15.17;13.57;;;4.40;99.90;;;;;;5072782;28;20205;-63
2021/03/19 05:38:50;;;;;;;18.13;16.23;;;4.40;99.90;;;;;;5072822;28;20396;-64
2021/03/19 05:41:18;;;;;;;16.20;13.80;;;4.40;99.90;;;;;;5054529;28;20412;-63
2021/03/19 05:43:54;;;;;;;48.73;31.70;;;4.40;99.90;;;;;;5073093;28;20815;-63
2021/03/19 05:46:38;;;;;;;27.27;20.33;;;4.40;99.90;;;;;;5072592;28;20456;-63
2021/03/19 05:49:09;;;;;;;19.17;16.97;;;4.40;99.90;;;;;;5073117;28;20400;-63
2021/03/19 05:51:36;;;;;;;20.30;15.50;;;4.40;99.90;;;;;;5077554;28;20927;-63
2021/03/19 05:54:10;;;;;;;15.33;13.63;;;4.40;99.90;;;;;;5086138;28;20438;-63
2021/03/19 05:56:36;;;;;;;16.00;14.10;;;4.40;99.90;;;;;;5078592;28;20451;-63
2021/03/19 05:59:02;;;;;;;16.33;14.63;;;4.50;99.90;;;;;;5074320;28;20424;-63
2021/03/19 06:01:28;;;;;;;16.80;15.10;;;4.60;99.90;;;;;;5076450;28;20408;-63
2021/03/19 06:03:57;;;;;;;16.33;14.07;;;4.60;99.90;;;;;;5072615;28;20404;-63
2021/03/19 06:06:44;;;;;;;15.03;13.53;;;4.50;99.90;;;;;;5076746;28;20185;-63
2021/03/19 06:09:42;;;;;;;13.13;11.83;;;4.70;99.90;;;;;;5076761;28;20421;-63
2021/03/19 06:12:15;;;;;;;13.13;11.73;;;4.90;99.90;;;;;;5022241;28;20428;-64
2021/03/19 06:14:54;;;;;;;13.17;11.37;;;5.00;99.90;;;;;;5077905;28;20877;-64
2021/03/19 06:17:41;;;;;;;16.90;15.20;;;5.00;99.90;;;;;;5075967;28;20485;-63
2021/03/19 06:20:14;;;;;;;18.27;16.37;;;5.00;99.90;;;;;;5076676;28;20416;-63
2021/03/19 06:22:57;;;;;;;17.17;15.37;;;4.80;99.90;;;;;;5076791;28;20881;-62
2021/03/19 06:25:24;;;;;;;16.60;14.80;;;4.70;99.90;;;;;;5076682;28;20381;-64
2021/03/19 06:27:55;;;;;;;18.70;16.60;;;4.50;99.90;;;;;;5055843;28;20515;-61
2021/03/19 06:30:43;;;;;;;15.63;13.50;;;4.60;99.90;;;;;;5087310;28;20425;-64
2021/03/19 06:33:12;;;;;;;15.67;14.07;;;4.60;99.90;;;;;;5080765;28;20430;-61
2021/03/19 06:35:39;;;;;;;15.63;13.93;;;4.70;99.90;;;;;;5077238;28;20773;-64
2021/03/19 06:38:24;;;;;;;15.27;13.37;;;4.60;99.90;;;;;;5075811;28;20473;-64
2021/03/19 06:40:49;;;;;;;15.50;13.97;;;4.80;99.90;;;;;;5075531;28;20419;-65
2021/03/19 06:43:24;;;;;;;17.33;15.53;;;4.90;99.90;;;;;;5075632;28;20435;-64
2021/03/19 06:46:26;;;;;;;24.97;20.13;;;4.90;99.90;;;;;;5057710;28;20173;-64
2021/03/19 06:48:55;;;;;;;19.73;17.73;;;4.70;99.90;;;;;;5041319;28;20432;-64
2021/03/19 06:51:29;;;;;;;22.80;18.30;;;4.70;99.90;;;;;;5055859;28;20765;-64
2021/03/19 06:53:59;;;;;;;21.63;19.00;;;4.80;99.90;;;;;;5055860;28;20385;-64
2021/03/19 06:56:25;;;;;;;23.23;19.67;;;4.60;99.90;;;;;;5063267;28;20404;-64
2021/03/19 06:58:52;;;;;;;20.77;18.50;;;4.60;99.90;;;;;;5057460;28;20404;-63
2021/03/19 07:01:23;;;;;;;24.20;20.30;;;4.50;99.90;;;;;;5079568;28;20172;-63
2021/03/19 07:04:13;;;;;;;22.93;20.67;;;4.60;99.90;;;;;;5077598;28;20789;-63
2021/03/19 07:07:19;;;;;;;21.80;19.47;;;4.80;99.90;;;;;;5069715;28;20432;-63
2021/03/19 07:10:03;;;;;;;28.23;23.43;;;4.80;99.90;;;;;;5074725;28;20865;-63
2021/03/19 07:12:47;;;;;;;23.40;19.10;;;4.70;99.90;;;;;;5074371;28;20396;-63
2021/03/19 07:15:19;;;;;;;25.83;22.87;;;5.00;99.90;;;;;;5075164;28;20889;-61
2021/03/19 07:17:53;;;;;;;23.87;21.37;;;5.00;99.90;;;;;;5074232;28;20511;-63
2021/03/19 07:20:36;;;;;;;22.70;19.67;;;4.90;99.90;;;;;;5075556;28;20399;-63
2021/03/19 07:23:21;;;;;;;23.40;18.53;;;4.90;99.90;;;;;;5057961;28;20448;-64
2021/03/19 07:26:08;;;;;;;19.70;17.33;;;4.90;99.90;;;;;;5074560;28;20405;-64
2021/03/19 07:28:48;;;;;;;19.40;17.40;;;5.00;99.90;;;;;;5084202;28;20411;-64
2021/03/19 07:31:16;;;;;;;21.50;18.50;;;5.10;99.90;;;;;;5075908;28;20472;-63
2021/03/19 07:33:57;;;;;;;20.40;18.20;;;5.10;99.90;;;;;;5074528;28;20412;-64
2021/03/19 07:36:28;;;;;;;23.00;18.17;;;5.10;99.90;;;;;;5071844;28;20899;-61
2021/03/19 07:39:02;;;;;;;22.33;19.93;;;5.30;99.90;;;;;;5071753;28;20468;-63
2021/03/19 07:41:48;;;;;;;19.70;17.60;;;5.20;99.90;;;;;;5074550;28;20884;-63
2021/03/19 07:44:13;;;;;;;21.47;19.27;;;5.20;99.90;;;;;;5074130;28;20408;-63
2021/03/19 07:46:41;;;;;;;25.00;18.50;;;5.30;99.90;;;;;;5070676;28;20448;-63
2021/03/19 07:49:55;;;;;;;22.60;20.03;;;5.30;99.90;;;;;;5054108;28;20174;-61
2021/03/19 07:52:34;;;;;;;20.87;18.60;;;5.20;99.90;;;;;;4954526;29;20424;-64
2021/03/19 07:55:25;;;;;;;19.13;17.23;;;5.10;99.90;;;;;;4956899;28;20409;-63
2021/03/19 07:58:16;;;;;;;18.97;16.00;;;5.20;99.90;;;;;;5027013;28;20425;-63
2021/03/19 08:00:47;;;;;;;17.77;15.80;;;4.90;99.90;;;;;;5036672;28;20900;-63
2021/03/19 08:03:20;;;;;;;20.10;18.00;;;4.90;99.90;;;;;;5054921;28;20441;-62
2021/03/19 08:05:53;;;;;;;19.23;17.20;;;5.00;99.90;;;;;;5037326;28;20428;-63
2021/03/19 08:08:40;;;;;;;23.77;17.33;;;5.30;99.90;;;;;;5055780;28;20474;-63
2021/03/19 08:11:38;;;;;;;17.63;15.70;;;5.40;99.90;;;;;;5055041;28;20434;-63
2021/03/19 08:14:31;;;;;;;19.10;16.00;;;5.00;99.90;;;;;;5027079;28;20913;-62
2021/03/19 08:17:03;;;;;;;19.20;17.20;;;4.80;99.90;;;;;;5053915;28;20436;-63
2021/03/19 08:19:36;;;;;;;19.00;16.67;;;4.90;99.90;;;;;;5074157;28;20920;-63
2021/03/19 08:22:20;;;;;;;19.53;16.30;;;4.90;99.90;;;;;;5072880;28;20538;-60
2021/03/19 08:25:00;;;;;;;16.83;15.03;;;4.60;99.90;;;;;;5073949;28;20930;-63
2021/03/19 08:28:03;;;;;;;18.23;16.23;;;4.90;99.90;;;;;;5072479;28;20790;-62
2021/03/19 08:30:53;;;;;;;19.70;16.97;;;5.00;99.90;;;;;;5074085;28;20376;-63
2021/03/19 08:33:41;;;;;;;16.03;14.43;;;4.90;99.90;;;;;;5073315;28;20393;-62
2021/03/19 08:36:10;;;;;;;16.00;14.00;;;4.60;99.90;;;;;;5073328;28;20407;-63
2021/03/19 08:38:49;;;;;;;18.60;16.20;;;4.70;99.90;;;;;;5073440;28;20466;-63
2021/03/19 08:41:20;;;;;;;17.40;14.27;;;4.60;99.90;;;;;;5073292;28;20442;-63
2021/03/19 08:43:52;;;;;;;17.97;13.93;;;4.70;99.90;;;;;;5073508;28;20744;-63
2021/03/19 08:46:30;;;;;;;19.30;16.43;;;4.90;99.90;;;;;;5073607;28;20413;-63
2021/03/19 08:49:03;;;;;;;19.53;16.47;;;5.10;99.90;;;;;;5124539;22;20968;-65
2021/03/19 08:51:28;;;;;;;18.63;15.43;;;5.00;99.90;;;;;;5114191;28;20454;-64
2021/03/19 08:54:12;;;;;;;16.57;13.93;;;5.20;99.90;;;;;;5114155;28;20440;-64
2021/03/19 08:56:44;;;;;;;16.30;14.60;;;5.00;99.90;;;;;;5113091;28;20531;-65
2021/03/19 08:59:30;;;;;;;16.63;13.47;;;4.90;99.90;;;;;;5113948;28;20449;-65
2021/03/19 09:01:58;;;;;;;18.43;15.63;;;5.20;99.90;;;;;;5114838;28;20446;-64
2021/03/19 09:04:55;;;;;;;16.87;13.53;;;5.30;99.90;;;;;;5113298;28;20922;-65
2021/03/19 09:07:26;;;;;;;14.87;12.90;;;5.20;99.90;;;;;;5113509;28;20739;-63
2021/03/19 09:09:54;;;;;;;17.30;13.87;;;5.10;99.90;;;;;;5113889;28;20515;-65
2021/03/19 09:12:28;;;;;;;15.07;13.33;;;4.90;99.90;;;;;;5113957;28;20482;-65
2021/03/19 09:15:14;;;;;;;18.20;14.73;;;4.90;99.90;;;;;;5113914;28;20387;-63
2021/03/19 09:17:43;;;;;;;17.87;15.73;;;4.90;99.90;;;;;;5113253;28;20418;-64
2021/03/19 09:20:38;;;;;;;20.53;16.53;;;4.80;99.90;;;;;;5113196;28;20513;-64
2021/03/19 09:23:12;;;;;;;21.57;16.20;;;4.70;99.90;;;;;;5078722;28;20542;-64
2021/03/19 09:26:23;;;;;;;17.23;14.30;;;4.70;99.90;;;;;;5113607;28;20401;-64
2021/03/19 09:29:12;;;;;;;16.40;14.30;;;5.00;99.90;;;;;;5113543;28;20471;-64
2021/03/19 09:31:43;;;;;;;17.73;15.83;;;5.00;99.90;;;;;;5102919;28;20493;-64
2021/03/19 09:34:41;;;;;;;15.47;13.83;;;4.80;99.90;;;;;;5117422;28;20402;-64
2021/03/19 09:37:11;;;;;;;21.43;15.37;;;4.90;99.90;;;;;;5082562;28;20430;-64
2021/03/19 09:39:46;;;;;;;17.10;14.73;;;5.00;99.90;;;;;;5118051;28;20430;-63
2021/03/19 09:42:20;;;;;;;17.57;15.37;;;5.10;99.90;;;;;;5117807;28;20536;-64
2021/03/19 09:44:47;;;;;;;15.97;14.27;;;5.30;99.90;;;;;;5118173;28;20410;-64
2021/03/19 09:47:15;;;;;;;15.27;13.10;;;5.30;99.90;;;;;;5117189;28;20462;-64
2021/03/19 09:49:41;;;;;;;19.50;14.40;;;5.10;99.90;;;;;;5117093;28;20433;-63
2021/03/19 09:52:17;;;;;;;15.90;13.70;;;5.00;99.90;;;;;;5117626;28;20398;-64
2021/03/19 09:54:43;;;;;;;15.60;13.07;;;5.20;99.90;;;;;;5117626;28;20280;-64
2021/03/19 09:57:13;;;;;;;15.97;13.17;;;5.30;99.90;;;;;;5117590;28;20406;-63
2021/03/19 09:59:42;;;;;;;15.30;13.70;;;5.60;99.90;;;;;;5117382;28;20496;-64
2021/03/19 10:02:34;;;;;;;14.20;12.70;;;6.10;99.90;;;;;;5117353;28;20499;-64
2021/03/19 10:05:34;;;;;;;15.87;14.17;;;6.00;99.90;;;;;;5117295;28;20440;-63
2021/03/19 10:08:00;;;;;;;13.53;11.90;;;6.20;99.90;;;;;;5117282;28;20422;-64
2021/03/19 10:10:34;;;;;;;12.40;11.10;;;6.30;99.90;;;;;;5117405;28;20405;-64
2021/03/19 10:13:16;;;;;;;11.47;10.37;;;6.60;99.90;;;;;;5117174;28;20413;-63
2021/03/19 10:15:44;;;;;;;12.97;11.70;;;6.70;99.90;;;;;;5117062;28;20386;-64
2021/03/19 10:18:26;;;;;;;12.70;11.40;;;6.60;99.90;;;;;;5116501;28;20419;-64
2021/03/19 10:20:55;;;;;;;11.40;10.30;;;6.50;99.90;;;;;;5102899;28;20851;-64
2021/03/19 10:23:30;;;;;;;11.53;10.33;;;6.50;99.90;;;;;;5099268;28;20439;-63
2021/03/19 10:26:09;;;;;;;12.20;11.00;;;6.40;99.90;;;;;;5096499;28;20421;-63
2021/03/19 10:28:35;;;;;;;12.23;10.90;;;6.40;99.90;;;;;;5097627;28;20430;-64
2021/03/19 10:31:18;;;;;;;11.80;10.60;;;6.20;99.90;;;;;;5117084;28;20428;-64
2021/03/19 10:34:00;;;;;;;12.83;11.53;;;6.40;99.90;;;;;;5116982;28;20383;-63
2021/03/19 10:36:47;;;;;;;10.00;9.10;;;6.40;99.90;;;;;;5116592;28;20906;-64
2021/03/19 10:39:31;;;;;;;10.90;9.80;;;5.80;99.90;;;;;;5116662;28;20923;-64
2021/03/19 10:42:19;;;;;;;11.60;10.40;;;5.20;99.90;;;;;;5116633;28;20987;-64
2021/03/19 10:45:10;;;;;;;13.10;11.70;;;5.00;99.90;;;;;;5114938;28;20394;-64
2021/03/19 10:47:48;;;;;;;14.70;12.93;;;5.30;99.90;;;;;;5116264;28;20483;-65
2021/03/19 10:50:29;;;;;;;11.77;10.60;;;5.40;99.90;;;;;;5098110;28;20387;-64
2021/03/19 10:53:07;;;;;;;14.13;12.03;;;5.70;99.90;;;;;;5117136;28;20469;-64
2021/03/19 10:55:35;;;;;;;14.00;12.60;;;6.00;99.90;;;;;;5116652;28;20401;-64
2021/03/19 10:58:20;;;;;;;11.90;10.70;;;6.20;99.90;;;;;;5097677;28;20498;-64
2021/03/19 11:00:47;;;;;;;12.57;11.30;;;6.30;99.90;;;;;;5086154;28;20452;-65
2021/03/19 11:03:31;;;;;;;11.00;9.90;;;6.30;99.90;;;;;;5085612;28;20963;-65
2021/03/19 11:05:58;;;;;;;11.83;10.73;;;6.50;99.90;;;;;;5075976;28;20419;-65
2021/03/19 11:08:24;;;;;;;12.77;11.40;;;6.80;99.90;;;;;;5075691;28;20518;-65
2021/03/19 11:10:52;;;;;;;10.77;9.60;;;6.70;99.90;;;;;;5075504;28;20492;-64
2021/03/19 11:13:31;;;;;;;8.90;8.00;;;6.10;99.90;;;;;;5074971;28;20495;-65
2021/03/19 11:16:00;;;;;;;7.30;6.60;;;5.80;99.90;;;;;;5075270;28;20524;-64
2021/03/19 11:18:37;;;;;;;7.63;6.83;;;5.80;99.90;;;;;;5075075;28;20431;-64
2021/03/19 11:21:03;;;;;;;6.23;5.63;;;5.90;99.90;;;;;;5075352;28;20776;-64
2021/03/19 11:23:37;;;;;;;6.43;5.83;;;6.00;99.90;;;;;;5074916;28;20447;-63
2021/03/19 11:26:19;;;;;;;6.60;6.00;;;5.90;99.90;;;;;;5074889;28;20169;-63
2021/03/19 11:28:46;;;;;;;6.10;5.60;;;6.00;99.90;;;;;;5078486;28;20791;-64
2021/03/19 11:31:26;;;;;;;6.43;5.83;;;6.00;99.90;;;;;;5095040;28;20395;-63
2021/03/19 11:34:05;;;;;;;7.03;6.43;;;5.30;99.90;;;;;;5095163;28;20379;-63
2021/03/19 11:36:54;;;;;;;7.73;6.50;;;5.00;99.90;;;;;;5081624;28;20422;-65
2021/03/19 11:39:41;;;;;;;7.17;6.43;;;5.20;99.90;;;;;;5089956;28;20427;-63
2021/03/19 11:42:13;;;;;;;6.07;5.57;;;5.40;99.90;;;;;;5074459;28;20440;-64
2021/03/19 11:44:39;;;;;;;6.80;6.20;;;5.40;99.90;;;;;;5091341;28;20457;-64
2021/03/19 11:47:25;;;;;;;6.90;6.30;;;5.50;99.90;;;;;;5093325;28;20435;-64
2021/03/19 11:50:03;;;;;;;5.90;5.37;;;5.40;99.90;;;;;;5093983;28;20438;-65
2021/03/19 11:52:29;;;;;;;7.17;6.47;;;5.50;99.90;;;;;;5085862;28;20919;-64
2021/03/19 11:54:54;;;;;;;7.23;6.53;;;5.50;99.90;;;;;;5081534;28;20410;-64
2021/03/19 11:57:20;;;;;;;7.27;6.57;;;5.30;99.90;;;;;;5101449;28;20231;-63
2021/03/19 11:59:45;;;;;;;7.43;6.73;;;5.40;99.90;;;;;;5092702;28;20223;-64
2021/03/19 12:02:25;;;;;;;6.77;6.07;;;5.50;99.90;;;;;;5094041;28;20197;-64
2021/03/19 12:04:51;;;;;;;7.90;7.10;;;5.50;99.90;;;;;;5091937;28;20220;-66
2021/03/19 12:07:17;;;;;;;9.00;8.20;;;5.50;99.90;;;;;;5094101;28;20414;-62
2021/03/19 12:09:44;;;;;;;8.40;7.60;;;5.70;99.90;;;;;;5093726;28;20403;-64
2021/03/19 12:12:15;;;;;;;8.67;7.80;;;5.70;99.90;;;;;;5093085;28;20166;-64
2021/03/19 12:14:41;;;;;;;9.97;9.03;;;5.50;99.90;;;;;;5092726;28;20447;-64
2021/03/19 12:17:07;;;;;;;8.70;7.77;;;5.50;99.90;;;;;;5092458;28;20454;-64
2021/03/19 12:19:33;;;;;;;9.30;8.43;;;5.40;99.90;;;;;;5094750;28;20177;-65
2021/03/19 12:21:59;;;;;;;9.80;8.80;;;5.30;99.90;;;;;;5087254;28;20456;-63
2021/03/19 12:24:24;;;;;;;10.90;8.40;;;5.40;99.90;;;;;;5085717;28;20417;-64
2021/03/19 12:26:50;;;;;;;9.83;8.83;;;5.40;99.90;;;;;;5088610;28;20170;-65
2021/03/19 12:29:15;;;;;;;11.90;9.50;;;5.40;99.90;;;;;;5080488;28;20208;-64
2021/03/19 12:31:41;;;;;;;12.10;9.83;;;5.20;99.90;;;;;;5085813;28;20541;-64
2021/03/19 12:34:08;;;;;;;23.93;20.20;;;5.20;99.90;;;;;;5113655;28;20165;-64
2021/03/19 12:36:34;;;;;;;12.27;10.40;;;5.20;99.90;;;;;;5114256;28;20395;-64
2021/03/19 12:38:59;;;;;;;13.00;10.03;;;5.20;99.90;;;;;;5114353;28;20560;-64
2021/03/19 12:41:25;;;;;;;11.63;10.37;;;5.20;99.90;;;;;;5113998;28;20168;-64
2021/03/19 12:43:50;;;;;;;14.33;10.67;;;5.10;99.90;;;;;;5114429;28;20157;-64
2021/03/19 12:46:17;;;;;;;15.47;12.93;;;4.90;99.90;;;;;;5114187;28;20160;-63
2021/03/19 12:48:43;;;;;;;13.80;11.33;;;4.90;99.90;;;;;;5113346;28;20215;-64
2021/03/19 12:51:08;;;;;;;16.40;11.50;;;4.90;99.90;;;;;;5114118;28;20398;-64
2021/03/19 12:53:34;;;;;;;15.70;13.10;;;5.20;99.90;;;;;;5113864;28;20501;-64
2021/03/19 12:56:05;;;;;;;15.97;12.70;;;5.10;99.90;;;;;;5104541;28;20230;-65
2021/03/19 12:58:31;;;;;;;17.77;13.67;;;5.10;99.90;;;;;;5084481;28;20497;-65
2021/03/19 13:00:57;;;;;;;18.53;14.13;;;5.00;99.90;;;;;;5081161;28;20396;-64
2021/03/19 13:03:23;;;;;;;18.17;14.47;;;5.10;99.90;;;;;;5072168;28;20479;-65
2021/03/19 13:05:49;;;;;;;17.90;14.10;;;5.00;99.90;;;;;;5072827;28;20165;-63
2021/03/19 13:08:15;;;;;;;17.37;14.23;;;4.80;99.90;;;;;;5072404;28;20420;-64
2021/03/19 13:10:40;;;;;;;19.27;14.73;;;4.90;99.90;;;;;;5072841;28;20396;-64
2021/03/19 13:13:08;;;;;;;22.07;16.77;;;5.00;99.90;;;;;;5072994;28;20162;-64